Terminal Aerodrome Forecast
Issued by NWS

Home | Current Version | Previous Version | Text Only | Print | Product List | Glossary On
Versions: 1 2 3 4 5 6 7 8 9 10 11 12 13 14 15 16 17 18 19
121
FTUS46 KEKA 231427 AAA
TAFUKI
TAF AMD
KUKI 231427Z 2314/2412 00000KT 6SM -SHRA BR SCT007 BKN015
      TEMPO 2314/2318 OVC004
     FM231900 16005KT 6SM -SHRA SCT020 BKN040
     FM240900 00000KT 6SM BR VCSH BKN010 OVC020=

USA.gov is the U.S. government's official web portal to all federal, state and local government web resources and services.